createdAt,value
2023-03-12T00:00:28.833Z,5.63
2023-03-12T00:02:52.203Z,6.10
2023-03-12T00:05:15.511Z,6.03
2023-03-12T00:07:39.493Z,5.97
2023-03-12T00:10:02.997Z,6.10
2023-03-12T00:12:27.753Z,5.97
2023-03-12T00:14:51.068Z,7.03
2023-03-12T00:17:14.292Z,5.83
2023-03-12T00:19:37.617Z,6.20
2023-03-12T00:22:00.895Z,6.27
2023-03-12T00:24:24.207Z,6.53
2023-03-12T00:26:47.434Z,5.47
2023-03-12T00:29:12.414Z,6.77
2023-03-12T00:31:35.798Z,6.57
2023-03-12T00:33:59.956Z,6.73
2023-03-12T00:36:27.098Z,6.47
2023-03-12T00:38:50.498Z,6.60
2023-03-12T00:41:13.963Z,6.60
2023-03-12T00:43:37.281Z,7.13
2023-03-12T00:46:01.976Z,7.47
2023-03-12T00:48:25.345Z,7.10
2023-03-12T00:50:48.566Z,7.57
2023-03-12T00:53:12.818Z,7.07
2023-03-12T00:55:36.248Z,7.03
2023-03-12T00:57:59.567Z,7.13
2023-03-12T01:00:23.382Z,7.70
2023-03-12T01:02:48.126Z,7.63
2023-03-12T01:05:13.744Z,7.23
2023-03-12T01:07:37.215Z,8.00
2023-03-12T01:10:00.478Z,8.00
2023-03-12T01:12:23.749Z,8.00
2023-03-12T01:14:47.127Z,8.13
2023-03-12T01:17:10.669Z,8.87
2023-03-12T01:19:35.660Z,8.63
2023-03-12T01:21:58.939Z,7.57
2023-03-12T01:24:22.185Z,7.30
2023-03-12T01:26:45.438Z,7.30
2023-03-12T01:29:08.651Z,7.10
2023-03-12T01:31:32.131Z,7.30
2023-03-12T01:33:55.653Z,6.90
2023-03-12T01:36:23.449Z,7.20
2023-03-12T01:38:46.938Z,7.07
2023-03-12T01:41:10.212Z,6.97
2023-03-12T01:43:35.910Z,6.50
2023-03-12T01:46:25.088Z,6.37
2023-03-12T01:48:55.996Z,6.60
2023-03-12T01:51:22.625Z,6.57
2023-03-12T01:53:50.458Z,6.33
2023-03-12T01:56:16.051Z,5.67
2023-03-12T01:58:42.043Z,6.00
2023-03-12T02:01:05.772Z,5.50
2023-03-12T02:03:30.416Z,5.60
2023-03-12T02:05:57.358Z,6.00
2023-03-12T02:08:23.547Z,5.57
2023-03-12T02:10:47.550Z,5.00
2023-03-12T02:13:12.360Z,4.70
2023-03-12T02:15:41.605Z,4.73
2023-03-12T02:18:05.571Z,4.93
2023-03-12T02:20:37.924Z,4.43
2023-03-12T02:23:07.854Z,5.30
2023-03-12T02:25:37.951Z,4.90
2023-03-12T02:28:04.413Z,4.70
2023-03-12T02:30:31.625Z,5.30
2023-03-12T02:32:56.372Z,5.20
2023-03-12T02:35:19.966Z,4.60
2023-03-12T02:37:51.387Z,4.53
2023-03-12T02:40:20.146Z,4.50
2023-03-12T02:42:45.580Z,4.33
2023-03-12T02:45:09.890Z,4.30
2023-03-12T02:47:33.226Z,4.80
2023-03-12T02:49:56.587Z,4.63
2023-03-12T02:52:19.872Z,4.40
2023-03-12T02:54:44.028Z,4.50
2023-03-12T02:57:07.954Z,4.83
2023-03-12T02:59:33.139Z,4.77
2023-03-12T03:01:59.925Z,3.83
2023-03-12T03:04:24.227Z,4.40
2023-03-12T03:06:48.766Z,4.33
2023-03-12T03:09:12.959Z,4.53
2023-03-12T03:11:36.497Z,4.33
2023-03-12T03:14:03.346Z,5.00
2023-03-12T03:16:28.387Z,4.57
2023-03-12T03:18:52.078Z,3.93
2023-03-12T03:21:17.404Z,4.43
2023-03-12T03:23:41.475Z,4.83
2023-03-12T03:26:05.693Z,4.33
2023-03-12T03:28:31.701Z,4.60
2023-03-12T03:30:58.199Z,4.73
2023-03-12T03:33:23.034Z,4.30
2023-03-12T03:35:46.607Z,4.50
2023-03-12T03:38:09.951Z,4.57
2023-03-12T03:40:33.671Z,4.53
2023-03-12T03:42:57.298Z,4.30
2023-03-12T03:45:20.492Z,4.93
2023-03-12T03:47:43.774Z,4.43
2023-03-12T03:50:11.100Z,4.10
2023-03-12T03:52:34.619Z,4.53
2023-03-12T03:54:59.397Z,4.87
2023-03-12T03:57:22.978Z,4.97
2023-03-12T03:59:46.355Z,4.50
2023-03-12T04:02:09.735Z,4.23
2023-03-12T04:04:35.435Z,4.03
2023-03-12T04:07:00.267Z,4.80
2023-03-12T04:09:23.675Z,4.27
2023-03-12T04:11:47.117Z,4.73
2023-03-12T04:14:11.203Z,3.90
2023-03-12T04:16:37.078Z,4.57
2023-03-12T04:19:01.081Z,3.57
2023-03-12T04:21:24.702Z,4.57
2023-03-12T04:23:49.643Z,4.10
2023-03-12T04:26:13.739Z,5.97
2023-03-12T04:28:38.785Z,4.03
2023-03-12T04:31:06.591Z,4.13
2023-03-12T04:33:40.357Z,4.70
2023-03-12T04:36:05.949Z,3.83
2023-03-12T04:38:32.303Z,4.03
2023-03-12T04:41:01.421Z,4.30
2023-03-12T04:43:25.267Z,4.40
2023-03-12T04:45:48.671Z,4.00
2023-03-12T04:48:11.968Z,4.10
2023-03-12T04:50:35.316Z,3.93
2023-03-12T04:52:58.861Z,4.40
2023-03-12T04:55:22.512Z,4.27
2023-03-12T04:57:47.296Z,4.80
2023-03-12T05:00:13.625Z,5.53
2023-03-12T05:02:38.658Z,5.07
2023-03-12T05:05:01.936Z,4.57
2023-03-12T05:07:29.554Z,5.20
2023-03-12T05:09:52.896Z,5.67
2023-03-12T05:12:16.148Z,5.00
2023-03-12T05:14:41.097Z,4.80
2023-03-12T05:17:06.153Z,4.47
2023-03-12T05:19:30.729Z,4.27
2023-03-12T05:21:54.090Z,5.07
2023-03-12T05:24:18.971Z,5.13
2023-03-12T05:26:42.316Z,4.90
2023-03-12T05:29:12.357Z,4.77
2023-03-12T05:31:37.216Z,4.93
2023-03-12T05:34:02.506Z,5.07
2023-03-12T05:36:26.317Z,4.20
2023-03-12T05:38:49.742Z,4.37
2023-03-12T05:41:21.284Z,3.83
2023-03-12T05:43:45.676Z,4.20
2023-03-12T05:46:09.037Z,3.83
2023-03-12T05:48:34.309Z,4.30
2023-03-12T05:50:59.248Z,3.50
2023-03-12T05:53:23.088Z,3.50
2023-03-12T05:55:46.413Z,3.80
2023-03-12T05:58:10.974Z,3.67
2023-03-12T06:00:37.996Z,3.70
2023-03-12T06:03:02.553Z,3.37
2023-03-12T06:05:27.830Z,3.63
2023-03-12T06:07:51.292Z,3.97
2023-03-12T06:10:14.813Z,3.17
2023-03-12T06:12:38.221Z,3.87
2023-03-12T06:15:01.553Z,4.00
2023-03-12T06:17:24.970Z,4.10
2023-03-12T06:19:52.753Z,4.20
2023-03-12T06:22:18.476Z,4.17
2023-03-12T06:24:42.643Z,4.63
2023-03-12T06:27:06.259Z,4.80
2023-03-12T06:29:29.582Z,5.30
2023-03-12T06:31:53.105Z,5.83
2023-03-12T06:34:16.871Z,5.37
2023-03-12T06:36:40.201Z,4.73
2023-03-12T06:39:08.227Z,5.77
2023-03-12T06:41:31.691Z,5.17
2023-03-12T06:43:55.031Z,5.13
2023-03-12T06:46:21.695Z,5.77
2023-03-12T06:48:46.589Z,5.37
2023-03-12T06:51:11.130Z,5.43
2023-03-12T06:53:34.613Z,4.73
2023-03-12T06:55:59.560Z,5.87
2023-03-12T06:58:23.294Z,5.80
2023-03-12T07:00:46.936Z,5.80
2023-03-12T07:03:10.449Z,6.80
2023-03-12T07:05:33.852Z,7.63
2023-03-12T07:07:57.367Z,7.00
2023-03-12T07:10:21.397Z,7.47
2023-03-12T07:12:46.258Z,7.20
2023-03-12T07:15:10.626Z,6.80
2023-03-12T07:17:34.088Z,7.03
2023-03-12T07:19:57.428Z,7.33
2023-03-12T07:22:20.776Z,7.27
2023-03-12T07:24:43.981Z,7.50
2023-03-12T07:27:07.329Z,7.13
2023-03-12T07:29:31.968Z,8.33
2023-03-12T07:31:55.250Z,7.80
2023-03-12T07:34:18.720Z,8.13
2023-03-12T07:36:42.356Z,8.60
2023-03-12T07:39:06.100Z,8.07
2023-03-12T07:41:29.512Z,8.40
2023-03-12T07:43:53.404Z,8.23
2023-03-12T07:46:18.383Z,7.57
2023-03-12T07:48:44.272Z,8.50
2023-03-12T07:51:08.329Z,7.00
2023-03-12T07:53:31.712Z,6.93
2023-03-12T07:55:56.523Z,6.27
2023-03-12T07:58:19.957Z,6.30
2023-03-12T08:00:43.602Z,5.27
2023-03-12T08:03:08.617Z,4.60
2023-03-12T08:05:32.088Z,4.77
2023-03-12T08:07:56.462Z,5.10
2023-03-12T08:10:21.111Z,4.43
2023-03-12T08:12:44.537Z,4.53
2023-03-12T08:15:09.541Z,4.40
2023-03-12T08:17:32.925Z,4.60
2023-03-12T08:19:57.542Z,4.67
2023-03-12T08:22:20.784Z,5.40
2023-03-12T08:24:44.528Z,4.50
2023-03-12T08:27:08.004Z,5.00
2023-03-12T08:29:33.495Z,6.07
2023-03-12T08:32:04.512Z,5.60
2023-03-12T08:34:28.408Z,5.77
2023-03-12T08:36:53.097Z,4.60
2023-03-12T08:39:16.565Z,5.80
2023-03-12T08:41:39.900Z,6.00
2023-03-12T08:44:03.278Z,6.23
2023-03-12T08:46:26.849Z,6.20
2023-03-12T08:48:50.310Z,6.30
2023-03-12T08:51:16.390Z,6.70
2023-03-12T08:53:41.775Z,5.70
2023-03-12T08:56:06.916Z,6.70
2023-03-12T08:58:30.548Z,7.17
2023-03-12T09:00:54.528Z,6.70
2023-03-12T09:03:18.111Z,6.83
2023-03-12T09:05:41.561Z,7.37
2023-03-12T09:08:05.048Z,7.30
2023-03-12T09:10:31.213Z,6.97
2023-03-12T09:12:54.603Z,7.00
2023-03-12T09:15:18.354Z,7.07
2023-03-12T09:17:42.132Z,7.83
2023-03-12T09:20:08.873Z,7.37
2023-03-12T09:22:32.130Z,7.68
2023-03-12T09:24:55.939Z,8.48
2023-03-12T09:27:20.560Z,8.20
2023-03-12T09:29:58.849Z,8.97
2023-03-12T09:32:23.206Z,8.47
2023-03-12T09:34:46.512Z,8.83
2023-03-12T09:37:09.888Z,9.03
2023-03-12T09:39:33.276Z,9.07
2023-03-12T09:41:56.630Z,9.67
2023-03-12T09:44:30.022Z,8.88
2023-03-12T09:46:57.463Z,8.53
2023-03-12T09:49:27.955Z,10.77
2023-03-12T09:51:57.061Z,9.70
2023-03-12T09:54:29.196Z,9.80
2023-03-12T09:56:53.966Z,8.87
2023-03-12T09:59:17.210Z,9.32
2023-03-12T10:01:45.657Z,10.43
2023-03-12T10:04:58.633Z,11.10
2023-03-12T10:07:29.545Z,11.10
2023-03-12T10:10:29.006Z,11.07
2023-03-12T10:13:10.556Z,10.17
2023-03-12T10:15:45.412Z,10.63
2023-03-12T10:18:24.133Z,9.68
2023-03-12T10:21:05.419Z,8.43
2023-03-12T10:23:44.954Z,9.52
2023-03-12T10:26:14.760Z,9.57
2023-03-12T10:28:43.696Z,10.82
2023-03-12T10:31:15.660Z,10.75
2023-03-12T10:33:47.765Z,9.93
2023-03-12T10:36:18.133Z,9.52
2023-03-12T10:38:41.423Z,10.27
2023-03-12T10:41:16.336Z,9.90
2023-03-12T10:43:39.883Z,10.43
2023-03-12T10:46:25.269Z,9.13
2023-03-12T10:48:50.015Z,11.20
2023-03-12T10:51:14.587Z,9.35
2023-03-12T10:53:40.303Z,9.52
2023-03-12T10:56:08.046Z,10.30
2023-03-12T10:58:37.901Z,10.27
2023-03-12T11:01:04.098Z,9.95
2023-03-12T11:03:28.308Z,9.80
2023-03-12T11:05:56.648Z,10.35
2023-03-12T11:08:24.383Z,11.57
2023-03-12T11:10:49.176Z,12.10
2023-03-12T11:13:32.088Z,11.40
2023-03-12T11:15:56.362Z,11.80
2023-03-12T11:18:32.080Z,12.02
2023-03-12T11:20:59.148Z,10.40
2023-03-12T11:23:27.441Z,11.07
2023-03-12T11:25:59.306Z,12.05
2023-03-12T11:28:29.584Z,12.70
2023-03-12T11:30:55.223Z,13.30
2023-03-12T11:33:18.647Z,13.38
2023-03-12T11:35:52.272Z,12.30
2023-03-12T11:38:21.749Z,12.55
2023-03-12T11:41:07.705Z,11.85
2023-03-12T11:43:50.504Z,11.77
2023-03-12T11:46:27.345Z,13.05
2023-03-12T11:49:04.753Z,13.15
2023-03-12T11:51:43.212Z,14.43
2023-03-12T11:54:51.775Z,16.40
2023-03-12T11:57:27.651Z,16.40
2023-03-12T12:00:12.155Z,16.08
2023-03-12T12:03:16.091Z,18.35
2023-03-12T12:05:50.835Z,17.42
2023-03-12T12:08:35.386Z,17.42
2023-03-12T12:11:09.430Z,17.20
2023-03-12T12:13:45.605Z,16.60
2023-03-12T12:16:26.760Z,15.45
2023-03-12T12:19:06.168Z,16.42
2023-03-12T12:21:46.741Z,16.42
2023-03-12T12:24:24.719Z,16.70
2023-03-12T12:27:00.738Z,17.05
2023-03-12T12:29:38.049Z,15.30
2023-03-12T12:32:05.419Z,16.35
2023-03-12T12:34:55.160Z,16.10
2023-03-12T12:37:26.372Z,16.80
2023-03-12T12:39:58.288Z,16.33
2023-03-12T12:42:31.054Z,14.88
2023-03-12T12:44:56.550Z,15.48
2023-03-12T12:47:26.155Z,15.10
2023-03-12T12:49:52.107Z,13.85
2023-03-12T12:52:20.174Z,14.15
2023-03-12T12:54:57.907Z,12.80
2023-03-12T12:57:29.885Z,12.23
2023-03-12T13:00:20.995Z,12.98
2023-03-12T13:02:47.940Z,11.63
2023-03-12T13:05:23.283Z,11.05
2023-03-12T13:07:46.636Z,10.38
2023-03-12T13:10:53.370Z,11.18
2023-03-12T13:13:27.687Z,10.82
2023-03-12T13:15:51.418Z,10.10
2023-03-12T13:18:26.805Z,9.25
2023-03-12T13:21:14.458Z,10.32
2023-03-12T13:23:45.604Z,9.18
2023-03-12T13:26:19.769Z,10.40
2023-03-12T13:31:39.496Z,10.20
2023-03-12T13:34:51.765Z,9.27
2023-03-12T13:38:01.776Z,9.25
2023-03-12T13:41:00.708Z,9.32
2023-03-12T13:43:52.957Z,8.35
2023-03-12T13:46:41.279Z,9.23
2023-03-12T13:49:17.633Z,10.40
2023-03-12T13:52:02.647Z,7.80
2023-03-12T13:54:32.691Z,8.90
2023-03-12T13:57:01.165Z,8.35
2023-03-12T13:59:27.026Z,8.32
2023-03-12T14:01:59.072Z,8.73
2023-03-12T14:04:27.016Z,8.50
2023-03-12T14:07:07.011Z,8.68
2023-03-12T14:09:40.378Z,7.88
2023-03-12T14:12:10.723Z,8.43
2023-03-12T14:15:05.244Z,8.18
2023-03-12T14:17:32.533Z,10.40
2023-03-12T14:20:01.979Z,7.63
2023-03-12T14:22:27.090Z,8.52
2023-03-12T14:24:54.987Z,9.88
2023-03-12T14:27:24.830Z,8.25
2023-03-12T14:29:53.593Z,8.32
2023-03-12T14:32:21.215Z,7.68
2023-03-12T14:34:49.115Z,7.63
2023-03-12T14:37:18.124Z,8.32
2023-03-12T14:39:45.956Z,7.50
2023-03-12T14:42:10.777Z,7.93
2023-03-12T14:44:37.876Z,7.97
2023-03-12T14:47:04.198Z,8.10
2023-03-12T14:49:28.192Z,7.72
2023-03-12T14:51:52.868Z,7.55
2023-03-12T14:54:20.380Z,8.40
2023-03-12T14:56:46.063Z,7.18
2023-03-12T14:59:25.815Z,6.65
2023-03-12T15:01:49.626Z,7.15
2023-03-12T15:04:19.053Z,8.43
2023-03-12T15:06:47.832Z,8.02
2023-03-12T15:09:22.074Z,7.68
2023-03-12T15:11:45.954Z,6.82
2023-03-12T15:14:15.135Z,6.78
2023-03-12T15:16:38.713Z,6.50
2023-03-12T15:19:04.121Z,7.40
2023-03-12T15:21:27.654Z,7.78
2023-03-12T15:23:51.105Z,6.95
2023-03-12T15:26:29.208Z,6.38
2023-03-12T15:28:58.972Z,6.45
2023-03-12T15:31:22.302Z,7.68
2023-03-12T15:33:46.405Z,6.45
2023-03-12T15:36:27.423Z,7.95
2023-03-12T15:38:53.631Z,7.53
2023-03-12T15:41:23.169Z,7.70
2023-03-12T15:43:50.189Z,6.88
2023-03-12T15:46:14.910Z,8.13
2023-03-12T15:48:40.897Z,6.93
2023-03-12T15:51:04.403Z,8.25
2023-03-12T15:53:32.334Z,8.68
2023-03-12T15:56:09.446Z,8.75
2023-03-12T15:58:36.595Z,7.10
2023-03-12T16:01:12.164Z,7.05
2023-03-12T16:03:35.687Z,7.35
2023-03-12T16:05:59.129Z,6.68
2023-03-12T16:08:28.821Z,6.47
2023-03-12T16:10:52.383Z,7.18
2023-03-12T16:13:18.554Z,6.13
2023-03-12T16:15:43.320Z,6.85
2023-03-12T16:18:06.804Z,6.72
2023-03-12T16:20:30.526Z,6.45
2023-03-12T16:22:53.978Z,7.30
2023-03-12T16:25:17.456Z,6.78
2023-03-12T16:27:49.290Z,7.03
2023-03-12T16:30:18.297Z,6.93
2023-03-12T16:32:43.068Z,5.90
2023-03-12T16:35:14.514Z,7.38
2023-03-12T16:37:37.785Z,6.60
2023-03-12T16:40:01.030Z,6.85
2023-03-12T16:42:24.446Z,7.80
2023-03-12T16:44:48.304Z,7.95
2023-03-12T16:47:13.347Z,7.03
2023-03-12T16:49:38.066Z,6.65
2023-03-12T16:52:01.362Z,7.80
2023-03-12T16:54:24.606Z,7.40
2023-03-12T16:56:49.673Z,6.40
2023-03-12T16:59:26.492Z,7.50
2023-03-12T17:01:49.820Z,6.82
2023-03-12T17:04:13.165Z,6.57
2023-03-12T17:06:39.976Z,7.43
2023-03-12T17:09:03.340Z,7.10
2023-03-12T17:11:32.737Z,6.85
2023-03-12T17:14:00.291Z,7.13
2023-03-12T17:16:24.436Z,6.80
2023-03-12T17:18:48.014Z,7.75
2023-03-12T17:21:13.768Z,6.65
2023-03-12T17:23:38.403Z,7.00
2023-03-12T17:26:01.698Z,7.28
2023-03-12T17:28:24.951Z,7.95
2023-03-12T17:30:48.379Z,7.32
2023-03-12T17:33:15.189Z,7.45
2023-03-12T17:35:38.654Z,7.60
2023-03-12T17:38:02.032Z,7.25
2023-03-12T17:40:26.856Z,7.50
2023-03-12T17:42:50.242Z,7.57
2023-03-12T17:45:13.714Z,6.60
2023-03-12T17:47:37.885Z,7.05
2023-03-12T17:50:01.336Z,7.55
2023-03-12T17:52:24.701Z,6.60
2023-03-12T17:54:48.014Z,7.65
2023-03-12T17:57:12.702Z,7.45
2023-03-12T17:59:36.027Z,7.53
2023-03-12T18:01:59.441Z,7.60
2023-03-12T18:04:22.832Z,6.95
2023-03-12T18:06:47.629Z,6.88
2023-03-12T18:09:10.910Z,6.18
2023-03-12T18:11:34.152Z,6.35
2023-03-12T18:13:59.017Z,6.32
2023-03-12T18:16:22.330Z,7.13
2023-03-12T18:18:45.629Z,5.85
2023-03-12T18:21:08.941Z,6.32
2023-03-12T18:23:32.252Z,6.63
2023-03-12T18:25:55.597Z,6.38
2023-03-12T18:28:19.267Z,7.32
2023-03-12T18:30:46.404Z,6.10
2023-03-12T18:33:09.655Z,7.35
2023-03-12T18:35:33.059Z,6.82
2023-03-12T18:37:56.426Z,7.45
2023-03-12T18:40:19.990Z,6.70
2023-03-12T18:42:44.486Z,7.45
2023-03-12T18:45:09.228Z,6.28
2023-03-12T18:47:34.872Z,6.63
2023-03-12T18:49:58.164Z,7.18
2023-03-12T18:52:21.501Z,6.28
2023-03-12T18:54:44.799Z,6.25
2023-03-12T18:57:08.097Z,7.57
2023-03-12T18:59:32.464Z,6.05
2023-03-12T19:01:55.924Z,6.47
2023-03-12T19:04:21.458Z,6.50
2023-03-12T19:06:51.180Z,6.57
2023-03-12T19:09:15.062Z,7.00
2023-03-12T19:11:38.578Z,6.10
2023-03-12T19:14:03.194Z,6.60
2023-03-12T19:16:26.528Z,6.25
2023-03-12T19:18:51.350Z,6.97
2023-03-12T19:21:16.182Z,6.38
2023-03-12T19:23:39.454Z,6.28
2023-03-12T19:26:02.705Z,6.18
2023-03-12T19:28:26.019Z,6.20
2023-03-12T19:30:49.387Z,6.10
2023-03-12T19:33:12.678Z,5.82
2023-03-12T19:35:39.509Z,6.43
2023-03-12T19:38:04.258Z,5.40
2023-03-12T19:40:27.765Z,6.90
2023-03-12T19:42:51.155Z,5.97
2023-03-12T19:45:14.868Z,6.40
2023-03-12T19:47:38.574Z,6.43
2023-03-12T19:50:02.974Z,5.70
2023-03-12T19:52:26.334Z,5.95
2023-03-12T19:55:03.260Z,7.22
2023-03-12T19:57:27.416Z,6.18
2023-03-12T19:59:50.680Z,6.70
2023-03-12T20:02:15.254Z,7.05
2023-03-12T20:04:38.811Z,6.80
2023-03-12T20:07:02.132Z,5.80
2023-03-12T20:09:25.469Z,6.75
2023-03-12T20:11:50.528Z,6.30
2023-03-12T20:14:13.785Z,6.60
2023-03-12T20:16:37.284Z,7.13
2023-03-12T20:19:00.729Z,6.43
2023-03-12T20:21:24.163Z,6.65
2023-03-12T20:23:47.539Z,7.70
2023-03-12T20:26:11.245Z,7.32
2023-03-12T20:28:35.890Z,8.00
2023-03-12T20:30:59.240Z,8.43
2023-03-12T20:33:22.774Z,7.88
2023-03-12T20:35:47.548Z,7.50
2023-03-12T20:38:11.954Z,7.28
2023-03-12T20:40:35.353Z,6.88
2023-03-12T20:42:58.725Z,6.72
2023-03-12T20:45:23.575Z,6.85
2023-03-12T20:47:46.975Z,7.70
2023-03-12T20:50:12.153Z,7.30
2023-03-12T20:52:35.713Z,6.70
2023-03-12T20:54:59.426Z,6.25
2023-03-12T20:57:22.790Z,6.95
2023-03-12T20:59:46.247Z,7.57
2023-03-12T21:02:15.283Z,6.43
2023-03-12T21:04:39.030Z,6.22
2023-03-12T21:07:02.477Z,6.85
2023-03-12T21:09:25.800Z,6.40
2023-03-12T21:11:49.099Z,6.20
2023-03-12T21:14:12.479Z,6.32
2023-03-12T21:16:35.958Z,5.70
2023-03-12T21:19:01.042Z,6.97
2023-03-12T21:21:24.672Z,6.68
2023-03-12T21:23:48.131Z,6.45
2023-03-12T21:26:13.470Z,6.38
2023-03-12T21:28:36.915Z,6.13
2023-03-12T21:31:06.220Z,6.65
2023-03-12T21:33:29.658Z,7.05
2023-03-12T21:35:54.385Z,6.53
2023-03-12T21:38:17.685Z,6.18
2023-03-12T21:40:41.117Z,5.85
2023-03-12T21:43:04.656Z,6.22
2023-03-12T21:45:28.040Z,6.25
2023-03-12T21:47:51.406Z,5.70
2023-03-12T21:50:14.776Z,6.50
2023-03-12T21:52:42.893Z,5.85
2023-03-12T21:55:09.023Z,6.97
2023-03-12T21:57:32.303Z,5.95
2023-03-12T21:59:55.593Z,6.50
2023-03-12T22:02:18.901Z,6.63
2023-03-12T22:04:42.448Z,6.03
2023-03-12T22:07:05.983Z,5.85
2023-03-12T22:09:30.678Z,6.55
2023-03-12T22:11:54.092Z,5.95
2023-03-12T22:14:17.467Z,5.70
2023-03-12T22:16:40.790Z,5.22
2023-03-12T22:19:04.102Z,5.78
2023-03-12T22:21:28.077Z,5.65
2023-03-12T22:23:53.643Z,5.65
2023-03-12T22:26:19.336Z,5.55
2023-03-12T22:28:42.777Z,4.72
2023-03-12T22:31:08.595Z,5.13
2023-03-12T22:33:32.322Z,5.40
2023-03-12T22:35:56.094Z,5.22
2023-03-12T22:38:19.533Z,4.97
2023-03-12T22:40:43.460Z,5.30
2023-03-12T22:43:08.118Z,4.90
2023-03-12T22:45:31.405Z,5.35
2023-03-12T22:47:54.677Z,4.53
2023-03-12T22:50:18.265Z,5.47
2023-03-12T22:52:41.575Z,5.45
2023-03-12T22:55:05.960Z,5.75
2023-03-12T22:57:29.243Z,5.10
2023-03-12T22:59:53.949Z,5.25
2023-03-12T23:02:17.315Z,5.25
2023-03-12T23:04:40.614Z,4.95
2023-03-12T23:07:13.667Z,5.05
2023-03-12T23:09:38.197Z,5.53
2023-03-12T23:12:01.475Z,4.97
2023-03-12T23:14:24.828Z,5.28
2023-03-12T23:16:49.593Z,5.22
2023-03-12T23:19:12.906Z,5.07
2023-03-12T23:21:36.153Z,4.80
2023-03-12T23:24:00.821Z,5.38
2023-03-12T23:26:27.029Z,5.45
2023-03-12T23:28:53.209Z,5.32
2023-03-12T23:31:17.459Z,4.75
2023-03-12T23:33:42.208Z,4.68
2023-03-12T23:36:08.533Z,4.57
2023-03-12T23:38:33.107Z,4.35
2023-03-12T23:41:01.978Z,4.55
2023-03-12T23:43:25.245Z,5.05
2023-03-12T23:45:48.521Z,5.00
2023-03-12T23:48:11.953Z,4.80
2023-03-12T23:50:37.077Z,4.95
2023-03-12T23:53:00.431Z,4.20
2023-03-12T23:55:23.675Z,4.10
2023-03-12T23:57:47.387Z,4.20
